Time;durP1;ratioP1;P1;durP2;ratioP2;P2;SDS_P1;SDS_P2;PMS_P1;PMS_P2;Temp;Humidity;BMP_temperature;BMP_pressure;BME280_temperature;BME280_humidity;BME280_pressure;Samples;Min_cycle;Max_cycle;Signal;HPM_P1;HPM_P2
2022/03/16 00:01:33;;;;;;;43.65;23.50;;;;;;;;;;6094844;23;20480;-47
2022/03/16 00:03:58;;;;;;;44.03;23.80;;;;;;;;;;6095825;23;20037;-46
2022/03/16 00:06:23;;;;;;;43.22;21.70;;;;;;;;;;6095618;23;20418;-47
2022/03/16 00:08:48;;;;;;;39.92;22.90;;;;;;;;;;6095072;23;20052;-47
2022/03/16 00:11:14;;;;;;;40.42;23.73;;;;;;;;;;6095283;23;20010;-47
2022/03/16 00:13:39;;;;;;;41.03;22.25;;;;;;;;;;6095953;23;20021;-46
2022/03/16 00:16:05;;;;;;;38.72;22.45;;;;;;;;;;6095442;23;20019;-45
2022/03/16 00:18:30;;;;;;;44.67;23.10;;;;;;;;;;6095137;23;20033;-47
2022/03/16 00:20:56;;;;;;;44.45;22.92;;;;;;;;;;6096182;23;20022;-44
2022/03/16 00:23:21;;;;;;;34.75;21.15;;;;;;;;;;6095400;23;20034;-45
2022/03/16 00:25:46;;;;;;;41.67;21.27;;;;;;;;;;6093952;23;20018;-45
2022/03/16 00:28:12;;;;;;;32.33;19.38;;;;;;;;;;6095870;23;20014;-47
2022/03/16 00:30:37;;;;;;;45.88;22.08;;;;;;;;;;6093810;23;20014;-46
2022/03/16 00:33:03;;;;;;;40.00;20.02;;;;;;;;;;6096947;23;20364;-44
2022/03/16 00:35:28;;;;;;;37.65;20.88;;;;;;;;;;6094980;23;20018;-45
2022/03/16 00:37:54;;;;;;;32.05;19.58;;;;;;;;;;6094633;23;20019;-44
2022/03/16 00:40:19;;;;;;;38.72;20.00;;;;;;;;;;6095015;23;20033;-45
2022/03/16 00:42:44;;;;;;;33.53;19.58;;;;;;;;;;6094308;23;20010;-45
2022/03/16 00:45:10;;;;;;;29.80;17.63;;;;;;;;;;6095767;23;20033;-47
2022/03/16 00:47:35;;;;;;;37.88;19.55;;;;;;;;;;6095201;23;20010;-47
2022/03/16 00:50:00;;;;;;;38.40;19.55;;;;;;;;;;6094138;23;20644;-47
2022/03/16 00:52:25;;;;;;;33.90;19.10;;;;;;;;;;6096385;23;20050;-45
2022/03/16 00:54:51;;;;;;;28.77;16.55;;;;;;;;;;6097441;23;20038;-45
2022/03/16 00:57:16;;;;;;;32.15;18.33;;;;;;;;;;6096202;23;20069;-46
2022/03/16 00:59:41;;;;;;;35.22;18.50;;;;;;;;;;6096765;23;20021;-46
2022/03/16 01:02:07;;;;;;;42.42;19.65;;;;;;;;;;6096574;23;20068;-45
2022/03/16 01:04:32;;;;;;;33.45;18.48;;;;;;;;;;6092504;23;20039;-46
2022/03/16 01:06:57;;;;;;;33.20;19.08;;;;;;;;;;6097017;23;20018;-45
2022/03/16 01:09:23;;;;;;;28.15;17.95;;;;;;;;;;6094591;23;20014;-45
2022/03/16 01:11:48;;;;;;;33.33;19.83;;;;;;;;;;6095356;23;20018;-44
2022/03/16 01:14:13;;;;;;;36.78;18.83;;;;;;;;;;6094354;23;20018;-44
2022/03/16 01:16:39;;;;;;;31.98;18.13;;;;;;;;;;6093821;23;20026;-46
2022/03/16 01:19:05;;;;;;;35.30;19.45;;;;;;;;;;6094320;23;20019;-45
2022/03/16 01:21:30;;;;;;;34.08;20.17;;;;;;;;;;6092806;23;20027;-44
2022/03/16 01:23:55;;;;;;;32.72;17.83;;;;;;;;;;6093014;23;20054;-46
2022/03/16 01:26:21;;;;;;;29.77;16.95;;;;;;;;;;6092956;23;20014;-43
2022/03/16 01:28:46;;;;;;;30.05;18.77;;;;;;;;;;6093649;23;20030;-44
2022/03/16 01:31:11;;;;;;;30.30;17.48;;;;;;;;;;6095119;23;20022;-47
2022/03/16 01:33:37;;;;;;;36.22;19.27;;;;;;;;;;6093532;23;20079;-46
2022/03/16 01:36:02;;;;;;;32.67;18.25;;;;;;;;;;6093736;23;20021;-47
2022/03/16 01:38:27;;;;;;;37.72;17.92;;;;;;;;;;6091876;23;20026;-45
2022/03/16 01:40:53;;;;;;;26.90;17.33;;;;;;;;;;6089632;23;20022;-47
2022/03/16 01:43:18;;;;;;;32.40;17.95;;;;;;;;;;6093751;23;20423;-47
2022/03/16 01:45:48;;;;;;;30.75;16.83;;;;;;;;;;6090581;23;20025;-46
2022/03/16 01:48:13;;;;;;;32.35;17.80;;;;;;;;;;6097307;23;20011;-45
2022/03/16 01:50:38;;;;;;;30.58;18.38;;;;;;;;;;6089499;23;20055;-45
2022/03/16 01:53:03;;;;;;;28.75;17.50;;;;;;;;;;6089158;23;20034;-45
2022/03/16 01:55:29;;;;;;;31.42;18.55;;;;;;;;;;6090417;23;20014;-46
2022/03/16 01:57:55;;;;;;;28.95;17.30;;;;;;;;;;6086947;23;20641;-45
2022/03/16 02:00:20;;;;;;;30.98;17.85;;;;;;;;;;6089064;23;20018;-47
2022/03/16 02:02:46;;;;;;;31.38;18.50;;;;;;;;;;6094415;23;20029;-47
2022/03/16 02:05:11;;;;;;;29.60;17.02;;;;;;;;;;6092966;23;20033;-45
2022/03/16 02:07:37;;;;;;;29.70;18.13;;;;;;;;;;6091414;23;20149;-48
2022/03/16 02:10:04;;;;;;;29.45;17.25;;;;;;;;;;6091408;23;20014;-46
2022/03/16 02:12:29;;;;;;;37.10;18.58;;;;;;;;;;6087872;23;20063;-45
2022/03/16 02:14:55;;;;;;;32.45;18.23;;;;;;;;;;6089690;23;20013;-46
2022/03/16 02:17:20;;;;;;;35.72;20.25;;;;;;;;;;6091959;23;20083;-44
2022/03/16 02:19:45;;;;;;;31.08;17.35;;;;;;;;;;6089789;23;20433;-46
2022/03/16 02:22:13;;;;;;;28.27;18.02;;;;;;;;;;6088089;23;20089;-47
2022/03/16 02:24:39;;;;;;;33.10;18.30;;;;;;;;;;6089097;23;20010;-47
2022/03/16 02:27:04;;;;;;;35.72;20.70;;;;;;;;;;6089358;23;20011;-46
2022/03/16 02:29:30;;;;;;;31.83;18.23;;;;;;;;;;6086787;23;20018;-44
2022/03/16 02:31:55;;;;;;;32.45;18.55;;;;;;;;;;6089220;23;20493;-44
2022/03/16 02:34:20;;;;;;;29.30;18.38;;;;;;;;;;6089397;23;20384;-45
2022/03/16 02:36:45;;;;;;;29.35;16.83;;;;;;;;;;6087214;23;20029;-45
2022/03/16 02:39:11;;;;;;;34.63;18.20;;;;;;;;;;6086497;23;20063;-44
2022/03/16 02:41:36;;;;;;;41.60;19.35;;;;;;;;;;6089016;23;20050;-45
2022/03/16 02:44:02;;;;;;;35.92;19.20;;;;;;;;;;6089995;23;20018;-46
2022/03/16 02:46:27;;;;;;;31.90;19.00;;;;;;;;;;6084588;23;20017;-44
2022/03/16 02:48:53;;;;;;;34.92;17.83;;;;;;;;;;6087461;23;20030;-44
2022/03/16 02:51:18;;;;;;;34.75;18.63;;;;;;;;;;6088082;23;20026;-45
2022/03/16 02:53:43;;;;;;;37.28;19.58;;;;;;;;;;6088872;23;20021;-44
2022/03/16 02:56:09;;;;;;;35.85;19.65;;;;;;;;;;6087281;23;20024;-46
2022/03/16 02:58:34;;;;;;;36.28;19.50;;;;;;;;;;6088875;23;20388;-45
2022/03/16 03:00:59;;;;;;;35.55;21.58;;;;;;;;;;6089062;23;20022;-44
2022/03/16 03:03:24;;;;;;;39.67;21.30;;;;;;;;;;6088627;23;20018;-45
2022/03/16 03:05:51;;;;;;;36.13;20.35;;;;;;;;;;6087006;23;20513;-43
2022/03/16 03:08:16;;;;;;;45.78;22.70;;;;;;;;;;6088334;23;20113;-45
2022/03/16 03:10:41;;;;;;;48.13;23.33;;;;;;;;;;6088165;23;20014;-45
2022/03/16 03:13:07;;;;;;;34.70;21.50;;;;;;;;;;6091033;23;20014;-45
2022/03/16 03:15:32;;;;;;;42.35;22.38;;;;;;;;;;6097165;23;20054;-45
2022/03/16 03:17:57;;;;;;;37.10;20.80;;;;;;;;;;6094847;23;20018;-46
2022/03/16 03:20:22;;;;;;;39.25;21.40;;;;;;;;;;6093881;23;20475;-44
2022/03/16 03:22:48;;;;;;;44.17;24.52;;;;;;;;;;6093416;23;20758;-44
2022/03/16 03:25:14;;;;;;;42.38;24.33;;;;;;;;;;6094019;23;20069;-44
2022/03/16 03:27:39;;;;;;;39.60;23.58;;;;;;;;;;6095429;23;20038;-45
2022/03/16 03:30:05;;;;;;;46.22;25.15;;;;;;;;;;6093113;23;20026;-47
2022/03/16 03:32:30;;;;;;;49.97;27.02;;;;;;;;;;6094831;23;20010;-44
2022/03/16 03:34:56;;;;;;;46.05;25.30;;;;;;;;;;6093739;23;20013;-45
2022/03/16 03:37:21;;;;;;;48.25;26.52;;;;;;;;;;6094799;23;20019;-44
2022/03/16 03:39:47;;;;;;;51.70;26.58;;;;;;;;;;6093955;23;20849;-44
2022/03/16 03:42:12;;;;;;;54.10;26.83;;;;;;;;;;6079307;23;20022;-44
2022/03/16 03:44:37;;;;;;;53.03;26.50;;;;;;;;;;6083069;23;20006;-45
2022/03/16 03:47:07;;;;;;;56.17;27.65;;;;;;;;;;6082542;23;20014;-45
2022/03/16 03:49:32;;;;;;;53.72;25.27;;;;;;;;;;6090184;23;20014;-45
2022/03/16 03:51:58;;;;;;;51.05;25.60;;;;;;;;;;6092412;23;20097;-44
2022/03/16 03:54:23;;;;;;;54.83;26.05;;;;;;;;;;6095360;23;20019;-46
2022/03/16 03:56:48;;;;;;;43.60;24.20;;;;;;;;;;6090778;23;20059;-45
2022/03/16 03:59:13;;;;;;;49.58;25.58;;;;;;;;;;6090997;23;20018;-45
2022/03/16 04:01:39;;;;;;;42.15;24.23;;;;;;;;;;6094180;23;20045;-47
2022/03/16 04:04:04;;;;;;;45.78;24.15;;;;;;;;;;6094164;23;20015;-47
2022/03/16 04:06:31;;;;;;;54.40;24.73;;;;;;;;;;6092851;23;20014;-45
2022/03/16 04:08:56;;;;;;;45.97;23.98;;;;;;;;;;6093393;23;20025;-45
2022/03/16 04:11:22;;;;;;;46.25;24.90;;;;;;;;;;6094245;23;20022;-45
2022/03/16 04:13:47;;;;;;;51.13;26.85;;;;;;;;;;6095487;23;20034;-45
2022/03/16 04:16:12;;;;;;;53.13;26.95;;;;;;;;;;6092117;23;20093;-45
2022/03/16 04:18:37;;;;;;;43.63;24.83;;;;;;;;;;6094848;23;20007;-45
2022/03/16 04:21:03;;;;;;;53.75;26.88;;;;;;;;;;6092815;23;20082;-45
2022/03/16 04:23:28;;;;;;;58.00;26.40;;;;;;;;;;6093477;23;20023;-47
2022/03/16 04:25:53;;;;;;;54.45;27.83;;;;;;;;;;6094548;23;20006;-45
2022/03/16 04:28:19;;;;;;;49.25;27.25;;;;;;;;;;6096541;23;20097;-46
2022/03/16 04:30:44;;;;;;;46.22;25.75;;;;;;;;;;6094486;23;20686;-47
2022/03/16 04:33:09;;;;;;;49.25;27.17;;;;;;;;;;6095795;23;20018;-45
2022/03/16 04:35:35;;;;;;;47.88;26.17;;;;;;;;;;6094578;23;20020;-45
2022/03/16 04:38:00;;;;;;;53.25;26.50;;;;;;;;;;6096527;23;20025;-45
2022/03/16 04:40:25;;;;;;;47.15;22.92;;;;;;;;;;6094762;23;20046;-45
2022/03/16 04:42:50;;;;;;;43.08;24.70;;;;;;;;;;6095354;23;20021;-48
2022/03/16 04:45:16;;;;;;;51.17;26.48;;;;;;;;;;6093553;23;20017;-46
2022/03/16 04:47:41;;;;;;;49.00;24.08;;;;;;;;;;6093469;23;20440;-44
2022/03/16 04:50:06;;;;;;;43.60;23.85;;;;;;;;;;6093050;23;20669;-44
2022/03/16 04:52:32;;;;;;;45.97;24.98;;;;;;;;;;6094550;23;20015;-47
2022/03/16 04:54:57;;;;;;;51.47;25.50;;;;;;;;;;6096469;23;20018;-45
2022/03/16 04:57:22;;;;;;;47.78;25.15;;;;;;;;;;6086060;23;20046;-45
2022/03/16 04:59:48;;;;;;;50.70;25.40;;;;;;;;;;6093989;23;20038;-44
2022/03/16 05:02:13;;;;;;;48.30;26.80;;;;;;;;;;6093945;23;20561;-47
2022/03/16 05:04:38;;;;;;;58.17;26.60;;;;;;;;;;6094454;23;20007;-44
2022/03/16 05:07:04;;;;;;;47.38;26.10;;;;;;;;;;6095190;23;20025;-48
2022/03/16 05:09:29;;;;;;;48.53;26.92;;;;;;;;;;6093075;23;20475;-46
2022/03/16 05:11:54;;;;;;;53.47;28.08;;;;;;;;;;6096491;23;20031;-47
2022/03/16 05:14:19;;;;;;;53.08;28.52;;;;;;;;;;6093914;23;20022;-45
2022/03/16 05:16:44;;;;;;;62.92;28.75;;;;;;;;;;6093134;23;20010;-46
2022/03/16 05:19:10;;;;;;;62.75;30.38;;;;;;;;;;6095129;23;20022;-48
2022/03/16 05:21:35;;;;;;;53.25;30.38;;;;;;;;;;6092121;23;20025;-44
2022/03/16 05:24:00;;;;;;;55.40;28.20;;;;;;;;;;6094339;23;20014;-44
2022/03/16 05:26:26;;;;;;;59.08;30.33;;;;;;;;;;6093333;23;20014;-44
2022/03/16 05:28:52;;;;;;;56.55;29.70;;;;;;;;;;6094391;23;20014;-45
2022/03/16 05:31:18;;;;;;;65.10;31.80;;;;;;;;;;6094801;23;20018;-44
2022/03/16 05:33:44;;;;;;;61.30;32.30;;;;;;;;;;6096034;23;20010;-48
2022/03/16 05:36:09;;;;;;;55.95;30.95;;;;;;;;;;6094755;23;20045;-46
2022/03/16 05:38:34;;;;;;;54.10;27.92;;;;;;;;;;6095960;23;20078;-46
2022/03/16 05:40:59;;;;;;;53.15;27.35;;;;;;;;;;6094005;23;20074;-44
2022/03/16 05:43:24;;;;;;;52.20;28.42;;;;;;;;;;6091572;23;20074;-46
2022/03/16 05:45:50;;;;;;;52.00;28.65;;;;;;;;;;6091597;23;20470;-45
2022/03/16 05:48:16;;;;;;;53.72;26.52;;;;;;;;;;6091197;23;20014;-44
2022/03/16 05:50:44;;;;;;;46.50;26.13;;;;;;;;;;6091307;23;20074;-46
2022/03/16 05:53:09;;;;;;;53.40;27.23;;;;;;;;;;6090390;23;20121;-46
2022/03/16 05:55:35;;;;;;;64.03;28.58;;;;;;;;;;6092115;23;20010;-44
2022/03/16 05:58:00;;;;;;;56.90;28.00;;;;;;;;;;6092109;23;20504;-45
2022/03/16 06:00:25;;;;;;;57.80;27.58;;;;;;;;;;6090855;23;20022;-45
2022/03/16 06:02:51;;;;;;;54.25;30.55;;;;;;;;;;6090882;23;20081;-49
2022/03/16 06:05:16;;;;;;;51.92;28.60;;;;;;;;;;6091036;23;20029;-46
2022/03/16 06:07:42;;;;;;;48.92;27.00;;;;;;;;;;6092436;23;20037;-45
2022/03/16 06:10:08;;;;;;;54.97;29.63;;;;;;;;;;6088282;23;20074;-45
2022/03/16 06:12:33;;;;;;;57.85;28.95;;;;;;;;;;6090868;23;20007;-45
2022/03/16 06:14:59;;;;;;;52.08;29.60;;;;;;;;;;6091982;23;20021;-44
2022/03/16 06:17:24;;;;;;;53.13;27.70;;;;;;;;;;6087241;23;20011;-45
2022/03/16 06:19:49;;;;;;;59.53;28.83;;;;;;;;;;6089991;23;20533;-45
2022/03/16 06:22:15;;;;;;;57.08;29.25;;;;;;;;;;6092755;23;20022;-46
2022/03/16 06:24:40;;;;;;;53.38;29.80;;;;;;;;;;6096447;23;20545;-45
2022/03/16 06:27:06;;;;;;;54.15;28.45;;;;;;;;;;6094431;23;20021;-48
2022/03/16 06:29:31;;;;;;;57.40;28.55;;;;;;;;;;6094075;23;20020;-44
2022/03/16 06:31:56;;;;;;;55.92;29.30;;;;;;;;;;6095337;23;20018;-44
2022/03/16 06:34:22;;;;;;;57.47;30.83;;;;;;;;;;6092240;23;20011;-44
2022/03/16 06:36:47;;;;;;;62.30;28.95;;;;;;;;;;6094462;23;20014;-46
2022/03/16 06:39:13;;;;;;;57.05;29.83;;;;;;;;;;6095121;23;20268;-45
2022/03/16 06:41:38;;;;;;;62.25;30.17;;;;;;;;;;6095404;23;20026;-46
2022/03/16 06:44:04;;;;;;;61.13;30.50;;;;;;;;;;6090188;23;20014;-46
2022/03/16 06:46:29;;;;;;;64.35;31.20;;;;;;;;;;6090472;23;20066;-47
2022/03/16 06:48:54;;;;;;;66.97;32.10;;;;;;;;;;6091500;23;20010;-46
2022/03/16 06:51:20;;;;;;;75.05;34.88;;;;;;;;;;6089931;23;20022;-44
2022/03/16 06:53:45;;;;;;;73.47;34.45;;;;;;;;;;6091462;23;20025;-46
2022/03/16 06:56:10;;;;;;;66.28;30.98;;;;;;;;;;6090540;23;20094;-45
2022/03/16 06:58:35;;;;;;;61.85;31.63;;;;;;;;;;6092054;23;20870;-47
2022/03/16 07:01:01;;;;;;;59.90;31.50;;;;;;;;;;6091715;23;20082;-45
2022/03/16 07:03:26;;;;;;;65.32;30.40;;;;;;;;;;6088577;23;20041;-46
2022/03/16 07:05:51;;;;;;;68.13;33.78;;;;;;;;;;6092225;23;20022;-47
2022/03/16 07:08:17;;;;;;;83.93;33.67;;;;;;;;;;6091222;23;20006;-46
2022/03/16 07:10:43;;;;;;;77.28;35.92;;;;;;;;;;6092139;23;20018;-47
2022/03/16 07:13:11;;;;;;;85.32;37.75;;;;;;;;;;6093920;23;20030;-45
2022/03/16 07:15:36;;;;;;;73.90;34.55;;;;;;;;;;6094532;23;20007;-49
2022/03/16 07:18:02;;;;;;;81.22;34.45;;;;;;;;;;6094514;23;20021;-46
2022/03/16 07:20:27;;;;;;;89.65;38.15;;;;;;;;;;6118391;23;20022;-48
2022/03/16 07:23:02;;;;;;;89.60;38.75;;;;;;;;;;6095308;23;20740;-44
2022/03/16 07:25:27;;;;;;;96.60;39.38;;;;;;;;;;6095796;23;20491;-47
2022/03/16 07:27:53;;;;;;;91.60;39.50;;;;;;;;;;6093300;23;20018;-46
2022/03/16 07:30:18;;;;;;;97.40;40.88;;;;;;;;;;6088142;23;20029;-45
2022/03/16 07:32:44;;;;;;;104.43;41.85;;;;;;;;;;6090361;23;20011;-44
2022/03/16 07:35:12;;;;;;;95.55;43.90;;;;;;;;;;6089679;23;20022;-47
2022/03/16 07:37:37;;;;;;;102.35;43.10;;;;;;;;;;6089456;23;20085;-45
2022/03/16 07:40:03;;;;;;;113.30;44.47;;;;;;;;;;6090104;23;20050;-46
2022/03/16 07:42:30;;;;;;;115.90;44.25;;;;;;;;;;6087265;23;20019;-45
2022/03/16 07:44:55;;;;;;;115.50;44.55;;;;;;;;;;6092758;23;20065;-47
2022/03/16 07:47:20;;;;;;;111.13;47.13;;;;;;;;;;6096253;23;20010;-46
2022/03/16 07:49:45;;;;;;;102.97;44.83;;;;;;;;;;6093200;23;20022;-45
2022/03/16 07:52:11;;;;;;;112.25;44.65;;;;;;;;;;6088189;23;20030;-45
2022/03/16 07:54:36;;;;;;;102.75;45.47;;;;;;;;;;6092679;23;20010;-48
2022/03/16 07:57:01;;;;;;;113.70;46.85;;;;;;;;;;6092867;23;20014;-45
2022/03/16 07:59:27;;;;;;;113.50;45.22;;;;;;;;;;6089067;23;20451;-45
2022/03/16 08:01:52;;;;;;;117.13;47.25;;;;;;;;;;6087775;23;20098;-45
2022/03/16 08:04:17;;;;;;;118.40;48.88;;;;;;;;;;6090678;23;20432;-44
2022/03/16 08:06:43;;;;;;;112.65;46.53;;;;;;;;;;6096166;23;20071;-44
2022/03/16 08:09:08;;;;;;;123.32;47.40;;;;;;;;;;6094925;23;20037;-46
2022/03/16 08:11:34;;;;;;;124.00;47.05;;;;;;;;;;6093764;23;20011;-45
2022/03/16 08:13:59;;;;;;;110.78;46.20;;;;;;;;;;6094984;23;20010;-46
2022/03/16 08:16:24;;;;;;;124.07;50.00;;;;;;;;;;6088344;23;20019;-46
2022/03/16 08:18:50;;;;;;;122.72;45.80;;;;;;;;;;6078757;23;20006;-44
2022/03/16 08:21:15;;;;;;;128.85;50.35;;;;;;;;;;6082573;23;20038;-48
2022/03/16 08:23:40;;;;;;;132.32;47.78;;;;;;;;;;6091039;23;20058;-46
2022/03/16 08:26:05;;;;;;;117.80;49.58;;;;;;;;;;6087614;23;20444;-53
2022/03/16 08:28:30;;;;;;;127.75;49.08;;;;;;;;;;6076824;23;20523;-43
2022/03/16 08:30:56;;;;;;;118.63;46.95;;;;;;;;;;6090067;23;20015;-45
2022/03/16 08:33:23;;;;;;;130.10;53.33;;;;;;;;;;6089491;23;20007;-44
2022/03/16 08:35:48;;;;;;;120.13;51.35;;;;;;;;;;6085337;23;20050;-44
2022/03/16 08:38:14;;;;;;;134.65;55.00;;;;;;;;;;6085245;23;20015;-48
2022/03/16 08:40:39;;;;;;;135.13;52.88;;;;;;;;;;6087963;23;20026;-44
2022/03/16 08:43:04;;;;;;;122.00;51.92;;;;;;;;;;6087288;23;20021;-46
2022/03/16 08:45:31;;;;;;;136.60;54.65;;;;;;;;;;6086441;23;20021;-44
2022/03/16 08:47:56;;;;;;;132.38;54.88;;;;;;;;;;6091592;23;20030;-45
2022/03/16 08:50:22;;;;;;;139.80;58.05;;;;;;;;;;6089186;23;20168;-45
2022/03/16 08:52:47;;;;;;;156.15;58.80;;;;;;;;;;6094096;23;20014;-46
2022/03/16 08:55:15;;;;;;;151.63;55.22;;;;;;;;;;6092300;23;20105;-46
2022/03/16 08:57:43;;;;;;;136.13;54.35;;;;;;;;;;6096299;23;20006;-45
2022/03/16 09:00:08;;;;;;;150.50;54.70;;;;;;;;;;6095649;23;20053;-47
2022/03/16 09:02:34;;;;;;;137.57;54.65;;;;;;;;;;6095977;23;20626;-45
2022/03/16 09:04:59;;;;;;;159.63;56.38;;;;;;;;;;6097321;23;20006;-45
2022/03/16 09:07:25;;;;;;;125.78;53.92;;;;;;;;;;6082962;23;20093;-46
2022/03/16 09:09:51;;;;;;;135.75;56.50;;;;;;;;;;6092121;23;20011;-47
2022/03/16 09:12:17;;;;;;;149.88;56.00;;;;;;;;;;6091553;23;20287;-49
2022/03/16 09:14:43;;;;;;;146.13;57.88;;;;;;;;;;6093076;23;20017;-44
2022/03/16 09:17:13;;;;;;;141.77;55.88;;;;;;;;;;6094568;23;20038;-46
2022/03/16 09:19:38;;;;;;;140.48;57.88;;;;;;;;;;6093758;23;20006;-46
2022/03/16 09:22:04;;;;;;;148.02;58.03;;;;;;;;;;6094356;23;20053;-46
2022/03/16 09:24:29;;;;;;;144.25;54.47;;;;;;;;;;6093340;23;20070;-48
2022/03/16 09:26:57;;;;;;;132.98;55.05;;;;;;;;;;6094823;23;20828;-45
2022/03/16 09:29:23;;;;;;;127.80;49.45;;;;;;;;;;6093444;23;20018;-46
2022/03/16 09:31:48;;;;;;;125.75;50.05;;;;;;;;;;6094073;23;20566;-46
2022/03/16 09:34:14;;;;;;;135.18;51.95;;;;;;;;;;6095183;23;20022;-47
2022/03/16 09:36:42;;;;;;;116.15;52.22;;;;;;;;;;6093577;23;20086;-45
2022/03/16 09:39:08;;;;;;;117.70;53.33;;;;;;;;;;6095680;23;20034;-45
2022/03/16 09:41:33;;;;;;;127.95;51.60;;;;;;;;;;6091825;23;20019;-46
2022/03/16 09:44:00;;;;;;;131.43;52.42;;;;;;;;;;6096644;23;20628;-47
2022/03/16 09:46:28;;;;;;;126.13;50.10;;;;;;;;;;6090138;23;20014;-45
2022/03/16 09:48:54;;;;;;;139.25;53.20;;;;;;;;;;6089595;23;20030;-46
2022/03/16 09:51:19;;;;;;;128.02;53.95;;;;;;;;;;6093472;23;20026;-47
2022/03/16 09:53:45;;;;;;;126.03;52.22;;;;;;;;;;6090004;23;20018;-45
2022/03/16 09:56:11;;;;;;;135.85;52.67;;;;;;;;;;6093861;23;20014;-45
2022/03/16 09:58:37;;;;;;;139.13;54.30;;;;;;;;;;6093128;23;20010;-45
2022/03/16 10:01:05;;;;;;;139.70;53.92;;;;;;;;;;6090589;23;20070;-46
2022/03/16 10:03:31;;;;;;;131.85;52.10;;;;;;;;;;6093052;23;20158;-47
2022/03/16 10:05:57;;;;;;;138.45;51.30;;;;;;;;;;6080605;23;20010;-46
2022/03/16 10:08:30;;;;;;;152.18;58.33;;;;;;;;;;6091676;23;20657;-45
2022/03/16 10:13:54;;;;;;;134.65;55.95;;;;;;;;;;6090190;23;20046;-46
2022/03/16 10:16:19;;;;;;;131.27;53.28;;;;;;;;;;6089306;23;20013;-45
2022/03/16 10:18:51;;;;;;;133.40;53.72;;;;;;;;;;6094257;23;20014;-46
2022/03/16 10:21:17;;;;;;;134.15;52.30;;;;;;;;;;6087852;23;20034;-47
2022/03/16 10:23:43;;;;;;;122.25;50.45;;;;;;;;;;6090619;23;20570;-47
2022/03/16 10:26:14;;;;;;;119.30;47.97;;;;;;;;;;6088586;23;20659;-47
2022/03/16 10:28:40;;;;;;;123.10;50.03;;;;;;;;;;6084192;23;20010;-44
2022/03/16 10:31:07;;;;;;;122.68;50.75;;;;;;;;;;6093191;23;20014;-46
2022/03/16 10:33:33;;;;;;;117.85;50.92;;;;;;;;;;6089606;23;20640;-45
2022/03/16 10:36:04;;;;;;;110.93;50.55;;;;;;;;;;6092915;23;20689;-45
2022/03/16 10:38:30;;;;;;;123.47;51.20;;;;;;;;;;6091413;23;20018;-45
2022/03/16 10:40:56;;;;;;;114.22;50.13;;;;;;;;;;6093235;23;20026;-46
2022/03/16 10:49:15;;;;;;;131.30;50.53;;;;;;;;;;6093260;23;20042;-45
2022/03/16 10:51:41;;;;;;;110.10;47.10;;;;;;;;;;6092560;23;20038;-47
2022/03/16 10:54:06;;;;;;;105.25;48.85;;;;;;;;;;6090298;23;20049;-45
2022/03/16 10:56:31;;;;;;;116.53;46.20;;;;;;;;;;6090035;23;20006;-47
2022/03/16 10:58:58;;;;;;;136.50;52.92;;;;;;;;;;6090006;23;20033;-45
2022/03/16 11:01:25;;;;;;;107.22;48.10;;;;;;;;;;6092441;23;20053;-49
2022/03/16 11:03:51;;;;;;;121.57;51.80;;;;;;;;;;6090394;23;20010;-46
2022/03/16 11:06:20;;;;;;;105.15;46.38;;;;;;;;;;6089861;23;20041;-45
2022/03/16 11:08:46;;;;;;;99.30;44.25;;;;;;;;;;6088940;23;20057;-46
2022/03/16 11:13:56;;;;;;;86.88;41.00;;;;;;;;;;6090200;23;20801;-46
2022/03/16 11:16:23;;;;;;;106.03;42.67;;;;;;;;;;6092998;23;20065;-45
2022/03/16 11:18:49;;;;;;;106.90;42.95;;;;;;;;;;6091167;23;20007;-45
2022/03/16 11:21:17;;;;;;;100.20;44.35;;;;;;;;;;6090921;23;20042;-46
2022/03/16 11:26:40;;;;;;;111.00;45.85;;;;;;;;;;6090017;23;20228;-45
2022/03/16 11:29:24;;;;;;;101.03;43.83;;;;;;;;;;6092176;23;20073;-46
2022/03/16 11:31:49;;;;;;;101.22;43.25;;;;;;;;;;6089428;23;20010;-47
2022/03/16 11:34:21;;;;;;;89.13;38.67;;;;;;;;;;6092519;23;20025;-47
2022/03/16 11:36:58;;;;;;;81.78;38.45;;;;;;;;;;6091932;23;20116;-45
2022/03/16 11:39:23;;;;;;;78.10;37.58;;;;;;;;;;6090596;23;20014;-45
2022/03/16 11:41:53;;;;;;;88.97;38.25;;;;;;;;;;6091420;23;20591;-47
2022/03/16 11:44:24;;;;;;;81.55;35.55;;;;;;;;;;6089535;23;20069;-45
2022/03/16 11:46:50;;;;;;;84.88;37.30;;;;;;;;;;6090417;23;20038;-45
2022/03/16 11:49:24;;;;;;;79.88;38.97;;;;;;;;;;6090417;23;20018;-46
2022/03/16 11:51:59;;;;;;;90.20;39.90;;;;;;;;;;6089354;23;20022;-46
2022/03/16 11:54:45;;;;;;;83.20;39.72;;;;;;;;;;6090430;23;20050;-49
2022/03/16 11:57:11;;;;;;;83.50;37.10;;;;;;;;;;6091487;23;20443;-46
2022/03/16 11:59:40;;;;;;;74.47;33.85;;;;;;;;;;6092215;23;20014;-47
2022/03/16 12:02:38;;;;;;;78.05;36.10;;;;;;;;;;6087421;23;20030;-47
2022/03/16 12:05:04;;;;;;;79.82;37.42;;;;;;;;;;6026151;23;20629;-46
2022/03/16 12:07:35;;;;;;;79.90;35.78;;;;;;;;;;6087588;23;20078;-44
2022/03/16 12:10:03;;;;;;;77.90;36.55;;;;;;;;;;6093247;23;20011;-45
2022/03/16 12:15:12;;;;;;;77.38;36.30;;;;;;;;;;6090531;23;20066;-45
2022/03/16 12:17:43;;;;;;;83.40;39.45;;;;;;;;;;6092254;23;20007;-47
2022/03/16 12:20:25;;;;;;;83.80;39.45;;;;;;;;;;6090100;23;20018;-46
2022/03/16 12:22:54;;;;;;;107.95;43.22;;;;;;;;;;6089578;23;20006;-46
2022/03/16 12:25:22;;;;;;;92.18;43.72;;;;;;;;;;6087726;23;20038;-46
2022/03/16 12:30:39;;;;;;;93.32;40.20;;;;;;;;;;6091052;23;20101;-46
2022/03/16 12:33:04;;;;;;;95.65;40.58;;;;;;;;;;6090732;23;20011;-49
2022/03/16 12:35:35;;;;;;;87.05;39.13;;;;;;;;;;6092469;23;20025;-46
2022/03/16 12:38:01;;;;;;;82.45;40.85;;;;;;;;;;6090817;23;20075;-44
2022/03/16 12:40:29;;;;;;;86.47;37.30;;;;;;;;;;6092578;23;20230;-44
2022/03/16 12:42:56;;;;;;;79.00;36.38;;;;;;;;;;6090291;23;20022;-45
2022/03/16 12:45:22;;;;;;;89.05;39.33;;;;;;;;;;6091819;23;20015;-44
2022/03/16 12:47:55;;;;;;;95.25;39.00;;;;;;;;;;6089567;23;20038;-45
2022/03/16 12:50:25;;;;;;;98.82;40.08;;;;;;;;;;6089506;23;20034;-44
2022/03/16 12:52:50;;;;;;;79.65;35.72;;;;;;;;;;6089230;23;20007;-44
2022/03/16 12:55:19;;;;;;;92.38;35.75;;;;;;;;;;6091470;23;20066;-44
2022/03/16 12:58:10;;;;;;;79.90;35.13;;;;;;;;;;6089120;23;20014;-46
2022/03/16 13:00:39;;;;;;;76.22;36.45;;;;;;;;;;6080862;23;20058;-45
2022/03/16 13:03:17;;;;;;;72.45;32.85;;;;;;;;;;6092059;23;20006;-46
2022/03/16 13:05:42;;;;;;;82.80;36.03;;;;;;;;;;6090281;23;20010;-46
2022/03/16 13:08:08;;;;;;;76.85;32.88;;;;;;;;;;6090256;23;20082;-44
2022/03/16 13:11:14;;;;;;;79.50;32.70;;;;;;;;;;6089658;23;20055;-45
2022/03/16 13:13:20;;;;;;;78.05;32.40;;;;;;;;;;6090014;23;20072;-46
2022/03/16 13:15:49;;;;;;;79.00;34.38;;;;;;;;;;6089820;23;20007;-45
2022/03/16 13:18:27;;;;;;;69.82;32.63;;;;;;;;;;6091777;23;20014;-43
2022/03/16 13:20:52;;;;;;;68.78;30.50;;;;;;;;;;6092575;23;20023;-46
2022/03/16 13:23:26;;;;;;;67.18;29.63;;;;;;;;;;6089796;23;20006;-45
2022/03/16 13:26:05;;;;;;;59.17;30.25;;;;;;;;;;6092029;23;20018;-45
2022/03/16 13:28:30;;;;;;;75.93;31.33;;;;;;;;;;6090363;23;20176;-45
2022/03/16 13:30:55;;;;;;;67.60;31.23;;;;;;;;;;6091674;23;20014;-46
2022/03/16 13:33:21;;;;;;;71.30;34.13;;;;;;;;;;6090496;23;20015;-45
2022/03/16 13:35:46;;;;;;;71.25;34.58;;;;;;;;;;6092390;23;20015;-46
2022/03/16 13:38:11;;;;;;;86.97;39.78;;;;;;;;;;6088982;23;20014;-45
2022/03/16 13:40:38;;;;;;;89.05;38.95;;;;;;;;;;6092573;23;20011;-45
2022/03/16 13:43:08;;;;;;;89.47;38.60;;;;;;;;;;6090843;23;20014;-45
2022/03/16 13:45:40;;;;;;;96.47;41.13;;;;;;;;;;6089685;23;20821;-45
2022/03/16 13:48:07;;;;;;;98.45;42.50;;;;;;;;;;6091697;23;20022;-45
2022/03/16 13:50:33;;;;;;;85.45;40.50;;;;;;;;;;6093588;23;20645;-46
2022/03/16 13:53:11;;;;;;;87.55;38.72;;;;;;;;;;6091734;23;20022;-45
2022/03/16 13:55:37;;;;;;;82.43;37.03;;;;;;;;;;6090851;23;20033;-48
2022/03/16 13:58:09;;;;;;;84.45;37.03;;;;;;;;;;6093953;23;20519;-46
2022/03/16 14:00:44;;;;;;;72.32;35.10;;;;;;;;;;6091534;23;20444;-45
2022/03/16 14:03:11;;;;;;;69.20;31.02;;;;;;;;;;6093075;23;20102;-46
2022/03/16 14:05:39;;;;;;;82.22;35.00;;;;;;;;;;6090939;23;20014;-44
2022/03/16 14:08:11;;;;;;;73.60;34.22;;;;;;;;;;6093747;23;20037;-51
2022/03/16 14:10:37;;;;;;;77.32;32.28;;;;;;;;;;6090064;23;20516;-45
2022/03/16 14:13:03;;;;;;;73.18;33.35;;;;;;;;;;6092873;23;20026;-47
2022/03/16 14:15:29;;;;;;;75.45;32.90;;;;;;;;;;6089215;23;20022;-46
2022/03/16 14:17:57;;;;;;;76.97;35.00;;;;;;;;;;6085367;23;20029;-46
2022/03/16 14:20:27;;;;;;;87.60;34.15;;;;;;;;;;6083951;23;20022;-46
2022/03/16 14:22:55;;;;;;;;;;;;;;;;;;6089613;23;20014;-45
2022/03/16 14:25:30;;;;;;;49.17;20.40;;;;;;;;;;6087687;23;19910;-45
2022/03/16 14:27:56;;;;;;;45.33;22.13;;;;;;;;;;6089616;23;20497;-45
2022/03/16 14:30:23;;;;;;;43.92;20.90;;;;;;;;;;6088964;23;20042;-46